createdAt,value
2023-03-11T00:00:41.351Z,167.88
2023-03-11T00:03:09.514Z,170.18
2023-03-11T00:05:42.377Z,159.60
2023-03-11T00:08:14.611Z,157.07
2023-03-11T00:10:47.280Z,160.93
2023-03-11T00:13:17.484Z,155.68
2023-03-11T00:15:50.318Z,168.82
2023-03-11T00:18:19.940Z,165.13
2023-03-11T00:20:47.790Z,165.52
2023-03-11T00:23:18.505Z,161.13
2023-03-11T00:25:48.122Z,167.02
2023-03-11T00:28:22.544Z,164.50
2023-03-11T00:30:55.733Z,154.95
2023-03-11T00:33:23.832Z,158.00
2023-03-11T00:35:51.629Z,166.95
2023-03-11T00:38:21.544Z,160.80
2023-03-11T00:40:49.265Z,156.60
2023-03-11T00:43:19.133Z,156.00
2023-03-11T00:45:47.628Z,165.75
2023-03-11T00:48:15.484Z,159.65
2023-03-11T00:50:43.405Z,160.02
2023-03-11T00:53:13.764Z,162.18
2023-03-11T00:55:43.184Z,164.30
2023-03-11T00:58:13.731Z,159.95
2023-03-11T01:00:49.009Z,160.38
2023-03-11T01:03:16.828Z,167.82
2023-03-11T01:05:48.438Z,165.07
2023-03-11T01:08:16.620Z,166.43
2023-03-11T01:10:44.371Z,165.80
2023-03-11T01:13:15.869Z,163.82
2023-03-11T01:15:45.482Z,158.48
2023-03-11T01:18:16.551Z,161.50
2023-03-11T01:20:46.454Z,157.68
2023-03-11T01:23:17.912Z,157.73
2023-03-11T01:25:45.749Z,163.45
2023-03-11T01:28:13.945Z,162.07
2023-03-11T01:30:42.830Z,165.00
2023-03-11T01:33:16.640Z,155.20
2023-03-11T01:35:45.468Z,157.07
2023-03-11T01:38:13.923Z,158.32
2023-03-11T01:40:48.249Z,153.70
2023-03-11T01:43:48.445Z,164.98
2023-03-11T01:46:38.274Z,151.05
2023-03-11T01:49:13.358Z,158.32
2023-03-11T01:51:49.508Z,154.73
2023-03-11T01:54:24.543Z,165.07
2023-03-11T01:56:54.869Z,164.50
2023-03-11T01:59:27.324Z,161.88
2023-03-11T02:02:17.981Z,160.75
2023-03-11T02:04:46.855Z,159.55
2023-03-11T02:07:16.443Z,162.13
2023-03-11T02:09:46.728Z,158.20
2023-03-11T02:12:15.831Z,167.45
2023-03-11T02:14:50.819Z,168.73
2023-03-11T02:17:19.542Z,158.88
2023-03-11T02:20:07.743Z,169.00
2023-03-11T02:22:37.071Z,161.05
2023-03-11T02:25:43.002Z,164.27
2023-03-11T02:28:16.648Z,160.25
2023-03-11T02:30:44.793Z,161.90
2023-03-11T02:33:15.038Z,161.38
2023-03-11T02:35:45.664Z,165.60
2023-03-11T02:38:14.722Z,160.05
2023-03-11T02:40:58.444Z,158.80
2023-03-11T02:43:46.485Z,157.48
2023-03-11T02:46:18.794Z,164.23
2023-03-11T02:48:48.836Z,161.15
2023-03-11T02:51:17.492Z,156.90
2023-03-11T02:53:55.812Z,162.63
2023-03-11T02:56:23.210Z,163.10
2023-03-11T02:58:50.887Z,165.20
2023-03-11T03:01:19.380Z,165.98
2023-03-11T03:03:50.023Z,155.65
2023-03-11T03:06:20.864Z,160.18
2023-03-11T03:08:50.694Z,163.32
2023-03-11T03:11:18.520Z,158.18
2023-03-11T03:13:48.853Z,162.27
2023-03-11T03:16:18.620Z,162.90
2023-03-11T03:18:45.956Z,168.95
2023-03-11T03:21:13.548Z,166.38
2023-03-11T03:23:42.867Z,163.32
2023-03-11T03:26:16.112Z,167.13
2023-03-11T03:28:46.282Z,159.35
2023-03-11T03:31:13.876Z,161.77
2023-03-11T03:33:44.218Z,166.98
2023-03-11T03:36:14.440Z,166.32
2023-03-11T03:38:46.182Z,166.50
2023-03-11T03:41:17.677Z,161.05
2023-03-11T03:43:45.824Z,157.25
2023-03-11T03:46:13.920Z,163.18
2023-03-11T03:48:49.192Z,160.00
2023-03-11T03:51:20.258Z,161.77
2023-03-11T03:54:04.315Z,162.48
2023-03-11T03:56:31.637Z,159.40
2023-03-11T03:58:59.490Z,160.95
2023-03-11T04:01:32.873Z,169.70
2023-03-11T04:03:59.950Z,160.32
2023-03-11T04:06:28.731Z,164.10
2023-03-11T04:09:02.050Z,170.20
2023-03-11T04:11:33.744Z,165.45
2023-03-11T04:14:02.949Z,166.75
2023-03-11T04:16:38.986Z,157.77
2023-03-11T04:19:14.683Z,160.65
2023-03-11T04:21:43.502Z,158.98
2023-03-11T04:24:18.272Z,158.32
2023-03-11T04:26:46.975Z,155.05
2023-03-11T04:29:17.903Z,161.80
2023-03-11T04:31:50.341Z,162.80
2023-03-11T04:34:17.957Z,169.50
2023-03-11T04:36:45.128Z,160.30
2023-03-11T04:39:18.754Z,168.02
2023-03-11T04:41:47.772Z,158.02
2023-03-11T04:44:22.431Z,161.35
2023-03-11T04:46:53.936Z,161.15
2023-03-11T04:49:21.910Z,163.88
2023-03-11T04:51:51.328Z,161.05
2023-03-11T04:54:23.750Z,161.80
2023-03-11T04:56:51.502Z,164.43
2023-03-11T04:59:22.078Z,163.50
2023-03-11T05:01:55.088Z,161.18
2023-03-11T05:04:22.242Z,167.68
2023-03-11T05:06:51.429Z,168.20
2023-03-11T05:09:24.728Z,159.55
2023-03-11T05:11:52.777Z,156.93
2023-03-11T05:14:21.266Z,162.52
2023-03-11T05:16:53.176Z,160.45
2023-03-11T05:19:32.313Z,157.82
2023-03-11T05:22:06.143Z,157.10
2023-03-11T05:24:34.367Z,162.88
2023-03-11T05:27:06.141Z,167.40
2023-03-11T05:29:34.524Z,162.27
2023-03-11T05:32:01.652Z,159.68
2023-03-11T05:34:28.487Z,155.90
2023-03-11T05:36:56.935Z,160.55
2023-03-11T05:39:25.739Z,159.07
2023-03-11T05:41:53.106Z,167.50
2023-03-11T05:44:23.320Z,163.95
2023-03-11T05:46:55.085Z,163.02
2023-03-11T05:49:23.969Z,164.55
2023-03-11T05:51:58.639Z,162.73
2023-03-11T05:54:29.262Z,156.98
2023-03-11T05:56:56.892Z,165.82
2023-03-11T05:59:25.068Z,166.35
2023-03-11T06:02:01.826Z,158.40
2023-03-11T06:04:31.186Z,167.15
2023-03-11T06:07:02.956Z,160.77
2023-03-11T06:09:38.488Z,164.73
2023-03-11T06:12:11.194Z,159.82
2023-03-11T06:15:02.281Z,166.38
2023-03-11T06:17:32.891Z,160.82
2023-03-11T06:20:01.033Z,165.07
2023-03-11T06:22:30.717Z,157.73
2023-03-11T06:25:02.146Z,158.82
2023-03-11T06:27:33.065Z,167.02
2023-03-11T06:30:01.324Z,162.77
2023-03-11T06:32:46.469Z,164.98
2023-03-11T06:35:21.707Z,165.00
2023-03-11T06:37:48.902Z,162.82
2023-03-11T06:43:04.711Z,165.82
2023-03-11T06:45:43.253Z,167.13
2023-03-11T06:48:13.857Z,164.07
2023-03-11T06:50:44.374Z,169.52
2023-03-11T06:53:14.179Z,161.75
2023-03-11T06:55:45.129Z,169.35
2023-03-11T06:58:13.555Z,162.02
2023-03-11T07:00:44.384Z,162.77
2023-03-11T07:03:13.770Z,155.63
2023-03-11T07:05:50.454Z,154.10
2023-03-11T07:08:18.780Z,153.15
2023-03-11T07:10:46.948Z,148.75
2023-03-11T07:13:15.425Z,155.93
2023-03-11T07:15:45.346Z,157.65
2023-03-11T07:18:14.987Z,162.38
2023-03-11T07:20:42.980Z,161.48
2023-03-11T07:23:10.179Z,161.48
2023-03-11T07:25:39.149Z,160.77
2023-03-11T07:28:06.688Z,155.40
2023-03-11T07:30:43.390Z,152.57
2023-03-11T07:33:13.139Z,154.60
2023-03-11T07:35:43.507Z,155.82
2023-03-11T07:38:13.228Z,161.85
2023-03-11T07:40:42.677Z,161.80
2023-03-11T07:43:12.176Z,153.32
2023-03-11T07:45:41.657Z,159.70
2023-03-11T07:48:08.572Z,150.55
2023-03-11T07:50:35.767Z,148.90
2023-03-11T07:53:03.778Z,153.55
2023-03-11T07:55:35.997Z,155.23
2023-03-11T07:58:08.157Z,149.63
2023-03-11T08:00:35.689Z,150.63
2023-03-11T08:03:02.857Z,149.10
2023-03-11T08:05:34.589Z,147.23
2023-03-11T08:08:01.825Z,154.10
2023-03-11T08:10:28.781Z,152.40
2023-03-11T08:12:56.878Z,153.43
2023-03-11T08:15:26.827Z,154.40
2023-03-11T08:17:58.936Z,153.68
2023-03-11T08:20:26.430Z,158.35
2023-03-11T08:22:58.411Z,155.65
2023-03-11T08:25:26.691Z,156.68
2023-03-11T08:27:54.942Z,157.13
2023-03-11T08:30:26.678Z,152.75
2023-03-11T08:32:56.821Z,151.65
2023-03-11T08:35:26.968Z,149.02
2023-03-11T08:38:00.186Z,157.25
2023-03-11T08:40:38.618Z,156.23
2023-03-11T08:43:06.220Z,150.95
2023-03-11T08:45:34.553Z,150.80
2023-03-11T08:48:05.216Z,153.98
2023-03-11T08:50:41.291Z,150.43
2023-03-11T08:53:15.780Z,154.05
2023-03-11T08:55:44.123Z,159.13
2023-03-11T08:58:12.168Z,143.07
2023-03-11T09:00:42.024Z,150.77
2023-03-11T09:03:09.549Z,150.15
2023-03-11T09:05:37.299Z,150.35
2023-03-11T09:08:06.433Z,150.35
2023-03-11T09:10:33.686Z,144.82
2023-03-11T09:13:01.308Z,146.38
2023-03-11T09:15:30.664Z,150.32
2023-03-11T09:17:57.857Z,158.07
2023-03-11T09:20:25.697Z,152.65
2023-03-11T09:22:53.105Z,152.82
2023-03-11T09:25:22.272Z,147.57
2023-03-11T09:28:00.038Z,151.65
2023-03-11T09:30:27.900Z,152.35
2023-03-11T09:32:55.159Z,152.38
2023-03-11T09:35:23.348Z,147.20
2023-03-11T09:37:50.286Z,155.30
2023-03-11T09:40:20.568Z,150.88
2023-03-11T09:42:57.737Z,153.05
2023-03-11T09:45:34.717Z,142.52
2023-03-11T09:48:06.615Z,142.63
2023-03-11T09:50:34.253Z,150.02
2023-03-11T09:53:37.440Z,141.65
2023-03-11T09:56:08.885Z,151.65
2023-03-11T09:58:49.183Z,147.95
2023-03-11T10:01:35.723Z,186.02
2023-03-11T10:04:17.407Z,154.30
2023-03-11T10:06:48.827Z,156.43
2023-03-11T10:09:42.140Z,155.00
2023-03-11T10:12:48.290Z,151.07
2023-03-11T10:15:51.036Z,153.00
2023-03-11T10:19:00.995Z,156.95
2023-03-11T10:22:00.106Z,153.95
2023-03-11T10:24:28.059Z,152.30
2023-03-11T10:27:02.283Z,156.00
2023-03-11T10:29:55.063Z,162.25
2023-03-11T10:32:45.325Z,154.45
2023-03-11T10:35:35.323Z,155.38
2023-03-11T10:38:29.696Z,148.48
2023-03-11T10:41:04.206Z,154.48
2023-03-11T10:43:43.338Z,150.35
2023-03-11T10:46:26.341Z,150.40
2023-03-11T10:48:54.580Z,150.60
2023-03-11T10:51:33.968Z,149.60
2023-03-11T10:54:04.311Z,150.23
2023-03-11T10:56:39.506Z,153.48
2023-03-11T10:59:42.852Z,149.18
2023-03-11T11:02:30.160Z,161.23
2023-03-11T11:05:18.468Z,148.82
2023-03-11T11:07:50.682Z,148.77
2023-03-11T11:10:25.478Z,152.13
2023-03-11T11:12:58.490Z,159.35
2023-03-11T11:15:31.874Z,155.15
2023-03-11T11:18:15.977Z,158.05
2023-03-11T11:21:01.219Z,140.88
2023-03-11T11:23:41.970Z,153.07
2023-03-11T11:26:26.557Z,145.48
2023-03-11T11:29:16.572Z,150.30
2023-03-11T11:31:48.955Z,149.93
2023-03-11T11:34:42.647Z,139.90
2023-03-11T11:37:13.366Z,144.05
2023-03-11T11:40:12.962Z,141.43
2023-03-11T11:42:45.542Z,144.65
2023-03-11T11:45:33.703Z,141.40
2023-03-11T11:48:07.948Z,148.13
2023-03-11T11:50:46.288Z,145.52
2023-03-11T11:53:31.712Z,141.07
2023-03-11T11:55:59.356Z,147.23
2023-03-11T11:58:29.499Z,147.98
2023-03-11T12:01:08.218Z,151.35
2023-03-11T12:03:51.567Z,144.27
2023-03-11T12:06:21.910Z,151.10
2023-03-11T12:09:06.352Z,151.63
2023-03-11T12:11:43.443Z,149.10
2023-03-11T12:14:27.015Z,151.23
2023-03-11T12:17:05.057Z,146.80
2023-03-11T12:19:44.268Z,147.68
2023-03-11T12:22:42.312Z,143.98
2023-03-11T12:25:18.263Z,147.73
2023-03-11T12:28:13.853Z,152.55
2023-03-11T12:31:11.934Z,148.63
2023-03-11T12:33:59.537Z,152.13
2023-03-11T12:36:30.564Z,151.55
2023-03-11T12:38:58.390Z,146.25
2023-03-11T12:41:39.105Z,150.35
2023-03-11T12:44:29.684Z,150.98
2023-03-11T12:47:19.362Z,150.80
2023-03-11T12:49:48.971Z,154.40
2023-03-11T12:52:26.268Z,154.73
2023-03-11T12:54:59.393Z,149.80
2023-03-11T12:57:37.326Z,153.13
2023-03-11T13:00:23.328Z,145.82
2023-03-11T13:02:53.274Z,154.93
2023-03-11T13:05:26.801Z,148.52
2023-03-11T13:08:15.277Z,151.98
2023-03-11T13:10:56.049Z,147.80
2023-03-11T13:13:42.788Z,153.93
2023-03-11T13:16:12.987Z,147.65
2023-03-11T13:18:42.333Z,149.95
2023-03-11T13:21:28.056Z,156.80
2023-03-11T13:24:20.437Z,157.15
2023-03-11T13:26:53.586Z,153.98
2023-03-11T13:29:45.302Z,157.20
2023-03-11T13:32:42.925Z,161.00
2023-03-11T13:35:28.733Z,160.27
2023-03-11T13:38:17.939Z,158.15
2023-03-11T13:40:46.630Z,148.43
2023-03-11T13:43:20.932Z,156.77
2023-03-11T13:46:08.585Z,157.07
2023-03-11T13:48:45.254Z,157.15
2023-03-11T13:51:27.784Z,151.35
2023-03-11T13:54:33.084Z,155.17
2023-03-11T13:57:02.664Z,146.85
2023-03-11T13:59:32.851Z,157.00
2023-03-11T14:02:13.128Z,152.13
2023-03-11T14:04:42.823Z,149.15
2023-03-11T14:07:31.776Z,157.18
2023-03-11T14:10:19.787Z,145.05
2023-03-11T14:12:47.145Z,154.15
2023-03-11T14:15:26.397Z,157.43
2023-03-11T14:18:14.441Z,147.57
2023-03-11T14:20:47.951Z,160.02
2023-03-11T14:23:19.480Z,159.10
2023-03-11T14:25:46.740Z,153.35
2023-03-11T14:28:21.993Z,148.00
2023-03-11T14:31:00.779Z,160.05
2023-03-11T14:33:28.248Z,160.20
2023-03-11T14:36:01.796Z,159.75
2023-03-11T14:38:31.221Z,156.63
2023-03-11T14:41:00.509Z,156.75
2023-03-11T14:43:32.349Z,150.13
2023-03-11T14:46:00.941Z,154.18
2023-03-11T14:48:32.112Z,149.98
2023-03-11T14:51:01.615Z,153.93
2023-03-11T14:53:39.170Z,155.73
2023-03-11T14:56:12.063Z,159.25
2023-03-11T14:59:10.552Z,157.70
2023-03-11T15:01:41.931Z,146.27
2023-03-11T15:04:12.234Z,141.00
2023-03-11T15:06:42.776Z,152.20
2023-03-11T15:09:21.340Z,171.18
2023-03-11T15:11:55.671Z,151.75
2023-03-11T15:14:29.170Z,198.98
2023-03-11T15:17:11.748Z,156.27
2023-03-11T15:19:40.269Z,170.85
2023-03-11T15:22:27.345Z,161.85
2023-03-11T15:24:57.758Z,159.82
2023-03-11T15:27:36.380Z,153.73
2023-03-11T15:30:18.235Z,155.70
2023-03-11T15:32:46.199Z,158.63
2023-03-11T15:35:28.344Z,151.05
2023-03-11T15:38:25.354Z,154.15
2023-03-11T15:41:04.178Z,155.70
2023-03-11T15:43:50.749Z,152.48
2023-03-11T15:46:20.214Z,153.98
2023-03-11T15:48:47.144Z,152.40
2023-03-11T15:51:19.887Z,150.43
2023-03-11T15:53:46.853Z,152.40
2023-03-11T15:56:25.257Z,149.57
2023-03-11T15:58:52.500Z,147.10
2023-03-11T16:01:26.208Z,150.05
2023-03-11T16:03:53.460Z,149.43
2023-03-11T16:06:24.556Z,148.85
2023-03-11T16:08:51.735Z,149.18
2023-03-11T16:11:24.210Z,149.18
2023-03-11T16:13:55.129Z,152.27
2023-03-11T16:16:23.234Z,150.35
2023-03-11T16:18:51.454Z,157.70
2023-03-11T16:21:22.474Z,158.55
2023-03-11T16:23:52.298Z,150.57
2023-03-11T16:26:22.893Z,151.15
2023-03-11T16:28:51.314Z,156.93
2023-03-11T16:31:22.770Z,156.38
2023-03-11T16:33:50.103Z,155.43
2023-03-11T16:36:18.507Z,154.30
2023-03-11T16:38:55.082Z,154.13
2023-03-11T16:41:22.561Z,158.05
2023-03-11T16:43:49.863Z,150.23
2023-03-11T16:46:17.149Z,153.45
2023-03-11T16:48:44.250Z,159.75
2023-03-11T16:51:14.559Z,151.85
2023-03-11T16:53:44.085Z,148.10
2023-03-11T16:56:13.594Z,158.38
2023-03-11T16:58:47.998Z,157.43
2023-03-11T17:01:17.172Z,170.38
2023-03-11T17:03:51.642Z,161.00
2023-03-11T17:06:21.315Z,164.10
2023-03-11T17:08:51.512Z,156.02
2023-03-11T17:11:21.283Z,160.60
2023-03-11T17:13:48.262Z,160.88
2023-03-11T17:16:15.220Z,154.60
2023-03-11T17:18:44.599Z,155.07
2023-03-11T17:21:14.484Z,151.10
2023-03-11T17:23:42.305Z,157.13
2023-03-11T17:26:14.539Z,154.30
2023-03-11T17:28:45.587Z,158.05
2023-03-11T17:31:15.821Z,198.27
2023-03-11T17:33:45.216Z,238.43
2023-03-11T17:36:16.644Z,210.40
2023-03-11T17:38:45.293Z,165.15
2023-03-11T17:41:17.782Z,282.95
2023-03-11T17:43:45.865Z,240.48
2023-03-11T17:46:16.834Z,296.42
2023-03-11T17:48:48.467Z,162.32
2023-03-11T17:51:21.230Z,176.75
2023-03-11T17:53:52.705Z,166.60
2023-03-11T17:56:23.376Z,172.85
2023-03-11T17:58:51.144Z,174.98
2023-03-11T18:01:21.354Z,170.18
2023-03-11T18:03:49.045Z,168.23
2023-03-11T18:06:18.510Z,166.75
2023-03-11T18:08:45.798Z,173.43
2023-03-11T18:11:18.793Z,162.32
2023-03-11T18:13:46.719Z,167.60
2023-03-11T18:16:20.153Z,164.27
2023-03-11T18:18:48.603Z,163.00
2023-03-11T18:21:24.861Z,174.30
2023-03-11T18:23:59.714Z,162.48
2023-03-11T18:26:28.618Z,168.90
2023-03-11T18:28:59.441Z,169.52
2023-03-11T18:31:28.631Z,167.90
2023-03-11T18:34:04.411Z,165.98
2023-03-11T18:36:35.467Z,158.88
2023-03-11T18:39:05.387Z,161.75
2023-03-11T18:41:34.698Z,164.82
2023-03-11T18:44:02.438Z,168.38
2023-03-11T18:46:31.769Z,165.85
2023-03-11T18:49:00.339Z,164.25
2023-03-11T18:51:30.719Z,166.48
2023-03-11T18:54:00.839Z,158.40
2023-03-11T18:56:31.647Z,160.25
2023-03-11T18:59:00.370Z,163.73
2023-03-11T19:01:29.044Z,164.20
2023-03-11T19:03:59.076Z,168.52
2023-03-11T19:06:33.732Z,165.20
2023-03-11T19:09:01.314Z,158.25
2023-03-11T19:11:29.843Z,164.65
2023-03-11T19:13:57.619Z,171.70
2023-03-11T19:16:26.536Z,157.80
2023-03-11T19:18:56.551Z,166.82
2023-03-11T19:21:24.205Z,162.15
2023-03-11T19:23:55.768Z,161.57
2023-03-11T19:26:43.291Z,164.13
2023-03-11T19:29:14.744Z,165.05
2023-03-11T19:31:43.806Z,164.07
2023-03-11T19:34:13.016Z,166.48
2023-03-11T19:36:46.976Z,163.27
2023-03-11T19:39:17.664Z,161.23
2023-03-11T19:41:45.451Z,160.55
2023-03-11T19:44:13.757Z,171.80
2023-03-11T19:46:45.100Z,167.52
2023-03-11T19:49:14.039Z,167.98
2023-03-11T19:51:50.106Z,163.23
2023-03-11T19:54:20.172Z,170.70
2023-03-11T19:56:49.571Z,166.45
2023-03-11T19:59:20.631Z,169.43
2023-03-11T20:01:49.678Z,164.63
2023-03-11T20:04:17.323Z,172.73
2023-03-11T20:06:46.422Z,169.90
2023-03-11T20:09:13.555Z,172.65
2023-03-11T20:11:45.763Z,172.38
2023-03-11T20:14:15.184Z,166.40
2023-03-11T20:16:45.852Z,176.43
2023-03-11T20:19:19.485Z,174.57
2023-03-11T20:21:46.833Z,162.70
2023-03-11T20:24:15.228Z,179.57
2023-03-11T20:26:50.051Z,179.32
2023-03-11T20:29:20.516Z,173.57
2023-03-11T20:31:48.626Z,184.02
2023-03-11T20:34:18.171Z,178.65
2023-03-11T20:36:46.765Z,173.65
2023-03-11T20:39:18.686Z,166.63
2023-03-11T20:41:48.196Z,169.80
2023-03-11T20:44:20.522Z,182.80
2023-03-11T20:46:50.499Z,168.20
2023-03-11T20:49:20.405Z,175.30
2023-03-11T20:51:50.941Z,170.68
2023-03-11T20:54:18.599Z,172.13
2023-03-11T20:56:48.026Z,173.23
2023-03-11T20:59:17.166Z,169.25
2023-03-11T21:01:47.110Z,163.07
2023-03-11T21:04:16.568Z,163.95
2023-03-11T21:06:47.138Z,166.13
2023-03-11T21:09:16.601Z,170.18
2023-03-11T21:11:46.487Z,172.85
2023-03-11T21:14:18.330Z,175.90
2023-03-11T21:16:52.467Z,166.70
2023-03-11T21:19:22.387Z,172.20
2023-03-11T21:21:49.803Z,172.23
2023-03-11T21:24:19.804Z,175.10
2023-03-11T21:26:49.564Z,166.68
2023-03-11T21:29:20.422Z,160.77
2023-03-11T21:31:51.329Z,169.57
2023-03-11T21:34:22.089Z,167.38
2023-03-11T21:36:50.610Z,168.07
2023-03-11T21:39:18.891Z,168.68
2023-03-11T21:41:47.861Z,171.30
2023-03-11T21:44:14.858Z,171.20
2023-03-11T21:46:43.354Z,168.57
2023-03-11T21:49:12.491Z,164.93
2023-03-11T21:51:39.992Z,175.60
2023-03-11T21:54:09.125Z,169.52
2023-03-11T21:56:36.363Z,173.77
2023-03-11T21:59:03.865Z,171.35
2023-03-11T22:01:33.958Z,166.32
2023-03-11T22:04:03.724Z,168.55
2023-03-11T22:06:33.589Z,171.55
2023-03-11T22:09:02.029Z,167.20
2023-03-11T22:11:29.503Z,170.38
2023-03-11T22:13:57.893Z,171.10
2023-03-11T22:16:29.000Z,164.23
2023-03-11T22:18:56.631Z,175.73
2023-03-11T22:21:23.953Z,172.55
2023-03-11T22:23:54.656Z,168.15
2023-03-11T22:26:27.514Z,167.75
2023-03-11T22:28:56.921Z,166.93
2023-03-11T22:31:26.834Z,168.43
2023-03-11T22:33:56.124Z,170.02
2023-03-11T22:36:23.592Z,176.88
2023-03-11T22:38:50.657Z,166.38
2023-03-11T22:41:21.191Z,167.95
2023-03-11T22:43:48.730Z,167.80
2023-03-11T22:46:18.414Z,168.20
2023-03-11T22:48:45.774Z,169.40
2023-03-11T22:51:13.354Z,170.77
2023-03-11T22:53:42.774Z,168.18
2023-03-11T22:56:14.908Z,167.52
2023-03-11T22:58:43.047Z,177.00
2023-03-11T23:01:13.095Z,171.40
2023-03-11T23:03:43.132Z,179.07
2023-03-11T23:06:12.995Z,169.43
2023-03-11T23:08:43.561Z,173.45
2023-03-11T23:11:13.468Z,165.00
2023-03-11T23:13:42.856Z,159.63
2023-03-11T23:16:14.191Z,170.48
2023-03-11T23:18:46.015Z,167.88
2023-03-11T23:21:31.791Z,173.85
2023-03-11T23:24:01.855Z,172.68
2023-03-11T23:26:32.725Z,166.82
2023-03-11T23:29:02.623Z,174.50
2023-03-11T23:31:32.414Z,170.57
2023-03-11T23:34:06.750Z,165.93
2023-03-11T23:36:35.143Z,169.82
2023-03-11T23:39:01.994Z,168.90
2023-03-11T23:41:31.321Z,169.68
2023-03-11T23:44:08.887Z,170.98
2023-03-11T23:46:36.083Z,176.75
2023-03-11T23:49:03.671Z,174.05
2023-03-11T23:51:31.580Z,179.43
2023-03-11T23:53:58.990Z,174.25
2023-03-11T23:56:26.433Z,173.00
2023-03-11T23:58:53.416Z,172.70
